Time,TemperatureF,DewpointF,PressureIn,WindDirection,WindDirectionDegrees,WindSpeedMPH,WindSpeedGustMPH,Humidity,HourlyPrecipIn,Conditions,Clouds,dailyrainin,SolarRadiationWatts/m^2,SoftwareType,DateUTC
2013-09-29 00:07:00,51.2,50.0,30.25,SSW,194,0.0,0.0,96,0.00,,,0.00,0,weatherlink.com 1.10,2013-09-29 04:07:00,
2013-09-29 00:22:00,50.6,50.0,30.25,SSW,194,0.0,0.0,96,0.00,,,0.00,0,weatherlink.com 1.10,2013-09-29 04:22:00,
2013-09-29 00:37:00,50.5,49.0,30.25,SSW,194,0.0,0.0,96,0.00,,,0.00,0,weatherlink.com 1.10,2013-09-29 04:37:00,
2013-09-29 00:52:00,50.1,49.0,30.25,SSW,194,0.0,0.0,96,0.00,,,0.00,0,weatherlink.com 1.10,2013-09-29 04:52:00,
2013-09-29 01:07:00,49.9,49.0,30.24,SSW,194,0.0,0.0,97,0.00,,,0.00,0,weatherlink.com 1.10,2013-09-29 05:07:00,
2013-09-29 01:22:00,49.7,49.0,30.25,SSW,194,0.0,0.0,97,0.00,,,0.00,0,weatherlink.com 1.10,2013-09-29 05:22:00,
2013-09-29 01:37:00,49.7,49.0,30.24,SSW,194,0.0,1.0,97,0.00,,,0.00,0,weatherlink.com 1.10,2013-09-29 05:37:00,
2013-09-29 01:52:00,49.5,49.0,30.23,SSW,194,0.0,0.0,97,0.00,,,0.00,0,weatherlink.com 1.10,2013-09-29 05:52:00,
2013-09-29 02:07:00,49.2,48.0,30.23,SSW,194,0.0,0.0,97,0.00,,,0.00,0,weatherlink.com 1.10,2013-09-29 06:07:00,
2013-09-29 02:22:00,48.8,48.0,30.23,SSW,194,0.0,0.0,97,0.00,,,0.00,0,weatherlink.com 1.10,2013-09-29 06:22:00,
2013-09-29 02:37:00,48.8,48.0,30.22,SSW,194,0.0,0.0,97,0.00,,,0.00,0,weatherlink.com 1.10,2013-09-29 06:37:00,
2013-09-29 02:52:00,49.4,49.0,30.22,SSW,194,0.0,0.0,97,0.00,,,0.00,0,weatherlink.com 1.10,2013-09-29 06:52:00,
2013-09-29 03:07:00,50.0,49.0,30.22,SSW,194,0.0,0.0,97,0.00,,,0.00,0,weatherlink.com 1.10,2013-09-29 07:07:00,
2013-09-29 03:22:00,50.6,50.0,30.21,SSW,194,0.0,0.0,97,0.00,,,0.00,0,weatherlink.com 1.10,2013-09-29 07:22:00,
2013-09-29 03:37:00,50.7,50.0,30.21,SSW,194,0.0,0.0,97,0.00,,,0.00,0,weatherlink.com 1.10,2013-09-29 07:37:00,
2013-09-29 03:52:00,51.0,50.0,30.21,SSW,194,0.0,0.0,97,0.00,,,0.00,0,weatherlink.com 1.10,2013-09-29 07:52:00,
2013-09-29 04:07:00,51.6,51.0,30.20,SSW,194,0.0,1.0,98,0.00,,,0.00,0,weatherlink.com 1.10,2013-09-29 08:07:00,
2013-09-29 04:22:00,51.5,51.0,30.20,SSW,194,0.0,1.0,98,0.00,,,0.00,0,weatherlink.com 1.10,2013-09-29 08:22:00,
2013-09-29 04:37:00,51.7,51.0,30.20,SSW,194,0.0,1.0,98,0.00,,,0.00,0,weatherlink.com 1.10,2013-09-29 08:37:00,
2013-09-29 04:52:00,51.5,51.0,30.20,SSW,200,0.0,1.0,98,0.00,,,0.00,0,weatherlink.com 1.10,2013-09-29 08:52:00,
2013-09-29 05:07:00,51.5,51.0,30.20,SSW,200,0.0,2.0,98,0.00,,,0.00,0,weatherlink.com 1.10,2013-09-29 09:07:00,
2013-09-29 05:22:00,51.5,51.0,30.20,NE,53,2.0,3.0,98,0.00,,,0.00,0,weatherlink.com 1.10,2013-09-29 09:22:00,
2013-09-29 05:37:00,51.4,51.0,30.20,NNE,30,0.0,1.0,98,0.00,,,0.00,0,weatherlink.com 1.10,2013-09-29 09:37:00,
2013-09-29 05:52:00,51.5,51.0,30.20,NNW,333,0.0,1.0,98,0.00,,,0.00,0,weatherlink.com 1.10,2013-09-29 09:52:00,
2013-09-29 06:08:00,51.2,51.0,30.20,NNW,340,0.0,5.0,98,0.01,,,0.01,0,weatherlink.com 1.10,2013-09-29 10:08:00,
2013-09-29 06:23:00,51.2,51.0,30.20,NNW,348,0.0,1.0,98,0.01,,,0.01,0,weatherlink.com 1.10,2013-09-29 10:23:00,
2013-09-29 06:38:00,51.1,51.0,30.21,NNE,18,0.0,4.0,98,0.01,,,0.01,0,weatherlink.com 1.10,2013-09-29 10:38:00,
2013-09-29 06:53:00,50.9,50.0,30.21,NNE,26,0.0,5.0,98,0.01,,,0.01,7,weatherlink.com 1.10,2013-09-29 10:53:00,
2013-09-29 07:08:00,50.7,50.0,30.21,NNE,32,0.0,7.0,98,0.00,,,0.01,16,weatherlink.com 1.10,2013-09-29 11:08:00,
2013-09-29 07:23:00,50.9,50.0,30.21,NNE,32,0.0,3.0,98,0.00,,,0.01,30,weatherlink.com 1.10,2013-09-29 11:23:00,
2013-09-29 07:39:00,51.0,51.0,30.22,NNE,32,0.0,1.0,98,0.00,,,0.01,46,weatherlink.com 1.10,2013-09-29 11:39:00,
2013-09-29 07:55:00,50.9,50.0,30.22,NNE,13,0.0,3.0,98,0.00,,,0.01,56,weatherlink.com 1.10,2013-09-29 11:55:00,
2013-09-29 08:09:00,51.3,51.0,30.22,North,5,0.0,1.0,98,0.00,,,0.01,79,weatherlink.com 1.10,2013-09-29 12:09:00,
2013-09-29 08:25:00,51.6,51.0,30.22,North,5,0.0,1.0,98,0.00,,,0.01,141,weatherlink.com 1.10,2013-09-29 12:25:00,
2013-09-29 08:39:00,51.8,51.0,30.22,NE,34,3.0,5.0,98,0.00,,,0.01,179,weatherlink.com 1.10,2013-09-29 12:39:00,
2013-09-29 08:55:00,51.5,51.0,30.22,North,9,0.0,4.0,98,0.00,,,0.01,139,weatherlink.com 1.10,2013-09-29 12:55:00,
2013-09-29 09:10:00,51.9,51.0,30.22,NNW,348,0.0,4.0,98,0.00,,,0.01,158,weatherlink.com 1.10,2013-09-29 13:10:00,
2013-09-29 09:25:00,52.4,52.0,30.22,NE,40,3.0,6.0,98,0.00,,,0.01,162,weatherlink.com 1.10,2013-09-29 13:25:00,
2013-09-29 09:40:00,52.5,52.0,30.22,NNE,15,5.0,5.0,98,0.00,,,0.01,188,weatherlink.com 1.10,2013-09-29 13:40:00,
2013-09-29 09:55:00,52.5,52.0,30.22,North,5,0.0,5.0,98,0.00,,,0.01,153,weatherlink.com 1.10,2013-09-29 13:55:00,
2013-09-29 10:10:00,53.7,54.0,30.22,NNE,24,0.0,4.0,99,0.00,,,0.01,90,weatherlink.com 1.10,2013-09-29 14:10:00,
2013-09-29 10:25:00,54.7,55.0,30.21,NNE,19,1.0,3.0,99,0.00,,,0.01,111,weatherlink.com 1.10,2013-09-29 14:25:00,
2013-09-29 10:41:00,56.3,56.0,30.20,NNE,19,2.0,3.0,98,0.00,,,0.01,58,weatherlink.com 1.10,2013-09-29 14:41:00,
2013-09-29 10:56:00,58.1,57.0,30.20,NNE,15,1.0,5.0,95,0.00,,,0.01,666,weatherlink.com 1.10,2013-09-29 14:56:00,
2013-09-29 11:11:00,60.1,56.0,30.19,North,355,5.0,6.0,85,0.00,,,0.01,698,weatherlink.com 1.10,2013-09-29 15:11:00,
2013-09-29 11:26:00,61.2,55.0,30.18,North,5,1.0,7.0,81,0.00,,,0.01,715,weatherlink.com 1.10,2013-09-29 15:26:00,
2013-09-29 11:41:00,61.9,55.0,30.18,NNE,26,5.0,5.0,77,0.00,,,0.01,751,weatherlink.com 1.10,2013-09-29 15:41:00,
2013-09-29 11:56:00,62.5,55.0,30.18,NE,40,0.0,5.0,77,0.00,,,0.01,752,weatherlink.com 1.10,2013-09-29 15:56:00,
2013-09-29 12:12:00,64.1,55.0,30.17,North,360,2.0,5.0,71,0.00,,,0.01,765,weatherlink.com 1.10,2013-09-29 16:12:00,
2013-09-29 12:27:00,65.2,53.0,30.17,North,5,2.0,5.0,66,0.00,,,0.01,777,weatherlink.com 1.10,2013-09-29 16:27:00,
2013-09-29 12:42:00,65.4,52.0,30.17,NNW,346,1.0,6.0,62,0.00,,,0.01,775,weatherlink.com 1.10,2013-09-29 16:42:00,
2013-09-29 12:57:00,65.6,47.0,30.17,NE,44,0.0,6.0,52,0.00,,,0.01,780,weatherlink.com 1.10,2013-09-29 16:57:00,
2013-09-29 13:12:00,66.7,49.0,30.16,SSE,164,1.0,5.0,53,0.00,,,0.01,775,weatherlink.com 1.10,2013-09-29 17:12:00,
2013-09-29 13:27:00,67.1,51.0,30.16,South,174,1.0,4.0,56,0.00,,,0.01,768,weatherlink.com 1.10,2013-09-29 17:27:00,
2013-09-29 13:42:00,68.2,49.0,30.15,SSE,162,1.0,4.0,51,0.00,,,0.01,759,weatherlink.com 1.10,2013-09-29 17:42:00,
2013-09-29 13:58:00,67.8,55.0,30.14,East,97,0.0,6.0,63,0.00,,,0.01,737,weatherlink.com 1.10,2013-09-29 17:58:00,
2013-09-29 14:13:00,66.8,57.0,30.14,SSE,161,2.0,5.0,70,0.00,,,0.01,712,weatherlink.com 1.10,2013-09-29 18:13:00,
2013-09-29 14:28:00,66.5,57.0,30.13,SSE,159,1.0,4.0,71,0.00,,,0.01,687,weatherlink.com 1.10,2013-09-29 18:28:00,
2013-09-29 14:43:00,66.3,56.0,30.13,SSW,202,2.0,7.0,69,0.00,,,0.01,661,weatherlink.com 1.10,2013-09-29 18:43:00,
2013-09-29 14:58:00,66.6,57.0,30.12,SSE,153,1.0,6.0,71,0.00,,,0.01,626,weatherlink.com 1.10,2013-09-29 18:58:00,
2013-09-29 15:15:00,65.4,56.0,30.12,South,176,3.0,8.0,72,0.00,,,0.01,589,weatherlink.com 1.10,2013-09-29 19:15:00,
2013-09-29 15:29:00,65.6,57.0,30.11,SE,146,2.0,10.0,74,0.00,,,0.01,552,weatherlink.com 1.10,2013-09-29 19:29:00,
2013-09-29 15:45:00,65.1,57.0,30.11,SSW,205,0.0,8.0,74,0.00,,,0.01,510,weatherlink.com 1.10,2013-09-29 19:45:00,
2013-09-29 15:59:00,65.0,56.0,30.11,SSW,202,0.0,4.0,73,0.00,,,0.01,469,weatherlink.com 1.10,2013-09-29 19:59:00,
2013-09-29 16:15:00,64.6,56.0,30.11,South,182,2.0,4.0,74,0.00,,,0.01,118,weatherlink.com 1.10,2013-09-29 20:15:00,
2013-09-29 16:29:00,64.1,56.0,30.11,South,184,0.0,6.0,75,0.00,,,0.01,54,weatherlink.com 1.10,2013-09-29 20:29:00,
2013-09-29 16:45:00,64.2,56.0,30.11,South,186,0.0,4.0,75,0.00,,,0.01,54,weatherlink.com 1.10,2013-09-29 20:45:00,
2013-09-29 17:00:00,64.0,56.0,30.11,South,179,0.0,5.0,75,0.00,,,0.01,44,weatherlink.com 1.10,2013-09-29 21:00:00,
2013-09-29 17:15:00,64.0,56.0,30.11,South,181,0.0,4.0,74,0.00,,,0.01,40,weatherlink.com 1.10,2013-09-29 21:15:00,
2013-09-29 17:30:00,63.8,55.0,30.11,South,181,2.0,3.0,74,0.00,,,0.01,33,weatherlink.com 1.10,2013-09-29 21:30:00,
2013-09-29 17:45:00,63.5,56.0,30.10,South,181,0.0,1.0,76,0.00,,,0.01,26,weatherlink.com 1.10,2013-09-29 21:45:00,
2013-09-29 18:00:00,62.3,56.0,30.11,South,181,0.0,0.0,81,0.00,,,0.01,19,weatherlink.com 1.10,2013-09-29 22:00:00,
2013-09-29 18:15:00,60.7,56.0,30.10,South,181,0.0,1.0,84,0.00,,,0.01,11,weatherlink.com 1.10,2013-09-29 22:15:00,
2013-09-29 18:30:00,59.1,55.0,30.10,South,181,0.0,0.0,87,0.00,,,0.01,5,weatherlink.com 1.10,2013-09-29 22:30:00,
2013-09-29 18:45:00,57.9,55.0,30.10,South,181,0.0,0.0,89,0.00,,,0.01,0,weatherlink.com 1.10,2013-09-29 22:45:00,
2013-09-29 19:01:00,56.8,54.0,30.10,South,181,0.0,0.0,91,0.00,,,0.01,0,weatherlink.com 1.10,2013-09-29 23:01:00,
2013-09-29 19:16:00,56.0,54.0,30.10,South,181,0.0,0.0,92,0.00,,,0.01,0,weatherlink.com 1.10,2013-09-29 23:16:00,
2013-09-29 19:31:00,55.3,53.0,30.11,South,181,0.0,1.0,93,0.00,,,0.01,0,weatherlink.com 1.10,2013-09-29 23:31:00,
2013-09-29 19:46:00,54.6,53.0,30.10,South,181,0.0,0.0,93,0.00,,,0.01,0,weatherlink.com 1.10,2013-09-29 23:46:00,
2013-09-29 20:01:00,53.9,52.0,30.11,South,181,0.0,0.0,94,0.00,,,0.01,0,weatherlink.com 1.10,2013-09-30 00:01:00,
2013-09-29 20:16:00,53.3,52.0,30.11,South,181,0.0,0.0,94,0.00,,,0.01,0,weatherlink.com 1.10,2013-09-30 00:16:00,
2013-09-29 20:31:00,52.7,51.0,30.11,South,181,0.0,0.0,95,0.00,,,0.01,0,weatherlink.com 1.10,2013-09-30 00:31:00,
2013-09-29 20:46:00,52.3,51.0,30.11,South,181,0.0,0.0,95,0.00,,,0.01,0,weatherlink.com 1.10,2013-09-30 00:46:00,
2013-09-29 21:02:00,51.9,51.0,30.11,South,181,0.0,1.0,95,0.00,,,0.01,0,weatherlink.com 1.10,2013-09-30 01:02:00,
2013-09-29 21:16:00,51.8,51.0,30.11,South,181,0.0,0.0,95,0.00,,,0.01,0,weatherlink.com 1.10,2013-09-30 01:16:00,
2013-09-29 21:32:00,51.7,50.0,30.10,South,181,0.0,0.0,95,0.00,,,0.01,0,weatherlink.com 1.10,2013-09-30 01:32:00,
2013-09-29 21:47:00,52.0,51.0,30.10,South,181,0.0,0.0,95,0.00,,,0.01,0,weatherlink.com 1.10,2013-09-30 01:47:00,
2013-09-29 22:02:00,52.1,51.0,30.11,South,181,0.0,0.0,95,0.00,,,0.01,0,weatherlink.com 1.10,2013-09-30 02:02:00,
2013-09-29 22:17:00,52.6,51.0,30.11,South,181,0.0,0.0,95,0.00,,,0.01,0,weatherlink.com 1.10,2013-09-30 02:17:00,
2013-09-29 22:32:00,52.9,52.0,30.11,South,181,0.0,1.0,95,0.00,,,0.01,0,weatherlink.com 1.10,2013-09-30 02:32:00,
2013-09-29 22:47:00,52.7,51.0,30.10,South,181,0.0,1.0,95,0.00,,,0.01,0,weatherlink.com 1.10,2013-09-30 02:47:00,
2013-09-29 23:02:00,52.4,51.0,30.10,South,181,0.0,1.0,94,0.00,,,0.01,0,weatherlink.com 1.10,2013-09-30 03:02:00,
2013-09-29 23:18:00,52.1,51.0,30.11,South,181,0.0,0.0,95,0.00,,,0.01,0,weatherlink.com 1.10,2013-09-30 03:18:00,
2013-09-29 23:33:00,52.3,51.0,30.10,South,181,0.0,0.0,95,0.00,,,0.01,0,weatherlink.com 1.10,2013-09-30 03:33:00,
2013-09-29 23:48:00,52.0,51.0,30.10,South,181,0.0,0.0,95,0.00,,,0.01,0,weatherlink.com 1.10,2013-09-30 03:48:00,